Terminal Aerodrome Forecast
Issued by NWS Charleston, SC

Home | Current Version | Previous Version | Text Only | Print | Product List | Glossary On
Versions: 1 2 3 4 5 6 7 8 9 10 11 12 13 14
206
FTUS42 KCHS 212330
TAFCHS
TAF
KCHS 212330Z 2200/2224 VRB03KT P6SM FEW030 SCT150 BKN200
     FM220900 VRB03KT P6SM SCT015 BKN050
     FM221500 18008KT P6SM VCTS SCT030CB BKN100=

USA.gov is the U.S. government's official web portal to all federal, state and local government web resources and services.